Weather at Flugplatz Hausen am Albis

Public forecast

Using degrees Celsius for public forecast. Weather courtesy of forecast.io.

Closest aviation weather report (METAR) to Flugplatz Hausen am Albis

Closest report is Dübendorf Air Base, 11.0 nm (20.4 km) NNE. Retrieved 2021/05/12 05:20 UTC (38 minutes ago):

LSMD 120520Z AUTO 08003KT 9999NDV -SHRA FEW022 OVC026 08/07 Q1015 RMK

Closest aviation forecast (TAF) to Flugplatz Hausen am Albis

Forecast is more than 12 hours old.

Closest forecast is Dübendorf Air Base, 11.0 nm (20.4 km) NNE. Retrieved 2021/05/11 17:00 UTC (13 hours ago):

TAF LSMD 111625Z 1117/1223 25006KT 9999 -RA SCT015 BKN030 TEMPO 1117/1124 4500 RA BKN014 TEMPO 1124/1206 SHRA BKN020TCU PROB30 1210/1218 SHRA SCT040TCU